Beach Hampton, New York
Current Conditions -  °F | °C
As of 4:56 AM on Friday 28 Nov 2014 (Local Time) from KGON Reporting Station
Light Snow Light Snow  
Wind Chill: 21°   Ceiling: 6000
Heat Index: 31°   Visibility: 7mi
Dew Point: 26°   Wind: 13mph
Humidity: 82%   Direction: 330°NNW
Pressure: 30.01"   Gusts: NA
Location:  40.9764°N, 72.1316°W
Report Text: KGON 280956Z AUTO 33011KT 7SM -SN OVC060 M01/M03 A3001 RMK AO2 SLP160 P0000 T10061033 $
Loading
Personal Weather Stations






























Interactive Weather Map New forecast layout! Learn more

10-Day Weather Forecast

Advertisements
Track Severe Weather on mobile